APG423 RPVP-RPVE
Flight info
| Callsign | APG423 |
|---|---|
| Flight time | 0h 52m |
| Altitude | 34000 |
| Route | SAIRA1W SAIRA DCT MARAN W17 OCORO DCT LAMBO DCT KLO KLO7A |
| Aircraft | A20N/M-SDE2E3FGHIRWXY/LB1 |
Departure
| Time | 2026-05-06 15:10 |
|---|---|
| Airport | Puerto Princesa International Airport / PAF Antonio Bautista Air Base (RPVP) |
Arrival
| Time | 2026-05-06 16:02 |
|---|---|
| Airport | Godofredo P. Ramos Airport (RPVE) |
| Time | Latitude | Longitude | Altitude | Speed | Heading |
|---|---|---|---|---|---|
| 2026-05-06 14:51 | 9.74507 | 118.75118 | 73 ft | 0 kts | 2° |
| 2026-05-06 14:57 | 9.74504 | 118.75118 | 76 ft | 2 kts | 2° |
| 2026-05-06 14:57 | 9.74489 | 118.75117 | 69 ft | 2 kts | 2° |
| 2026-05-06 14:58 | 9.74474 | 118.75117 | 71 ft | 2 kts | 2° |
| 2026-05-06 14:58 | 9.74459 | 118.75116 | 65 ft | 2 kts | 2° |
| 2026-05-06 14:58 | 9.74444 | 118.75115 | 67 ft | 2 kts | 7° |
| 2026-05-06 14:58 | 9.74430 | 118.75113 | 70 ft | 2 kts | 23° |
| 2026-05-06 14:59 | 9.74417 | 118.75104 | 70 ft | 2 kts | 60° |
| 2026-05-06 14:59 | 9.74413 | 118.75090 | 67 ft | 2 kts | 99° |
| 2026-05-06 14:59 | 9.74415 | 118.75077 | 67 ft | 0 kts | 92° |
| 2026-05-06 15:06 | 9.74415 | 118.75086 | 70 ft | 4 kts | 91° |
| 2026-05-06 15:06 | 9.74414 | 118.75137 | 72 ft | 10 kts | 91° |
| 2026-05-06 15:06 | 9.74410 | 118.75218 | 72 ft | 13 kts | 105° |
| 2026-05-06 15:06 | 9.74331 | 118.75255 | 74 ft | 14 kts | 179° |
| 2026-05-06 15:07 | 9.74239 | 118.75285 | 71 ft | 14 kts | 99° |
| 2026-05-06 15:07 | 9.74233 | 118.75394 | 68 ft | 18 kts | 94° |
| 2026-05-06 15:07 | 9.74226 | 118.75553 | 63 ft | 28 kts | 91° |
| 2026-05-06 15:07 | 9.74220 | 118.75777 | 61 ft | 35 kts | 93° |
| 2026-05-06 15:08 | 9.74207 | 118.76050 | 53 ft | 42 kts | 92° |
| 2026-05-06 15:08 | 9.74196 | 118.76363 | 46 ft | 47 kts | 94° |
| 2026-05-06 15:08 | 9.74180 | 118.76665 | 39 ft | 33 kts | 92° |
| 2026-05-06 15:08 | 9.74187 | 118.76900 | 33 ft | 32 kts | 61° |
| 2026-05-06 15:09 | 9.74192 | 118.77044 | 30 ft | 11 kts | 149° |
| 2026-05-06 15:09 | 9.74165 | 118.77009 | 30 ft | 8 kts | 274° |
| 2026-05-06 15:09 | 9.74165 | 118.77004 | 30 ft | 0 kts | 273° |
| 2026-05-06 15:10 | 9.74249 | 118.74760 | 478 ft | 166 kts | 271° |
| 2026-05-06 15:10 | 9.74247 | 118.73576 | 1194 ft | 170 kts | 270° |
| 2026-05-06 15:11 | 9.74232 | 118.72358 | 1930 ft | 176 kts | 271° |
| 2026-05-06 15:11 | 9.74300 | 118.71061 | 2397 ft | 194 kts | 275° |
| 2026-05-06 15:11 | 9.74423 | 118.69632 | 2768 ft | 213 kts | 275° |
| 2026-05-06 15:11 | 9.74158 | 118.68089 | 3145 ft | 235 kts | 242° |
| 2026-05-06 15:12 | 9.73049 | 118.66831 | 3710 ft | 245 kts | 209° |
| 2026-05-06 15:12 | 9.71451 | 118.66332 | 4527 ft | 242 kts | 177° |
| 2026-05-06 15:12 | 9.69847 | 118.66717 | 5330 ft | 238 kts | 147° |
| 2026-05-06 15:12 | 9.68686 | 118.67871 | 6119 ft | 235 kts | 116° |
| 2026-05-06 15:13 | 9.68295 | 118.69451 | 6868 ft | 234 kts | 88° |
| 2026-05-06 15:13 | 9.68430 | 118.71119 | 7572 ft | 240 kts | 84° |
| 2026-05-06 15:13 | 9.68501 | 118.72815 | 8300 ft | 243 kts | 91° |
| 2026-05-06 15:13 | 9.68356 | 118.74535 | 9016 ft | 247 kts | 97° |
| 2026-05-06 15:14 | 9.68034 | 118.76257 | 9732 ft | 251 kts | 102° |
| 2026-05-06 15:14 | 9.67611 | 118.77987 | 10389 ft | 254 kts | 103° |
| 2026-05-06 15:14 | 9.67163 | 118.79658 | 11019 ft | 257 kts | 104° |
| 2026-05-06 15:14 | 9.66681 | 118.81418 | 11692 ft | 260 kts | 104° |
| 2026-05-06 15:15 | 9.66194 | 118.83199 | 12330 ft | 263 kts | 104° |
| 2026-05-06 15:15 | 9.65707 | 118.84998 | 12980 ft | 266 kts | 104° |
| 2026-05-06 15:15 | 9.65355 | 118.86850 | 13612 ft | 269 kts | 94° |
| 2026-05-06 15:15 | 9.65498 | 118.88778 | 13880 ft | 285 kts | 72° |
| 2026-05-06 15:16 | 9.66185 | 118.90744 | 14057 ft | 308 kts | 69° |
| 2026-05-06 15:16 | 9.66835 | 118.92422 | 14197 ft | 325 kts | 68° |
| 2026-05-06 15:16 | 9.67694 | 118.94599 | 14362 ft | 345 kts | 68° |
| 2026-05-06 15:16 | 9.68606 | 118.96928 | 14648 ft | 359 kts | 68° |
| 2026-05-06 15:17 | 9.69521 | 118.99293 | 15230 ft | 362 kts | 69° |
| 2026-05-06 15:17 | 9.70438 | 119.01685 | 15872 ft | 364 kts | 69° |
| 2026-05-06 15:17 | 9.71357 | 119.04092 | 16463 ft | 368 kts | 69° |
| 2026-05-06 15:17 | 9.72279 | 119.06515 | 17056 ft | 370 kts | 69° |
| 2026-05-06 15:18 | 9.73211 | 119.08963 | 17618 ft | 374 kts | 69° |
| 2026-05-06 15:18 | 9.74137 | 119.11396 | 18178 ft | 377 kts | 69° |
| 2026-05-06 15:18 | 9.75039 | 119.13769 | 18620 ft | 380 kts | 69° |
| 2026-05-06 15:18 | 9.76007 | 119.16314 | 19107 ft | 383 kts | 69° |
| 2026-05-06 15:19 | 9.76958 | 119.18817 | 19567 ft | 386 kts | 69° |
| 2026-05-06 15:19 | 9.77931 | 119.21375 | 20045 ft | 389 kts | 69° |
| 2026-05-06 15:19 | 9.78911 | 119.23953 | 20495 ft | 393 kts | 69° |
| 2026-05-06 15:19 | 9.79895 | 119.26543 | 20950 ft | 396 kts | 69° |
| 2026-05-06 15:20 | 9.80891 | 119.29164 | 21400 ft | 399 kts | 69° |
| 2026-05-06 15:20 | 9.81892 | 119.31799 | 21849 ft | 402 kts | 69° |
| 2026-05-06 15:20 | 9.82902 | 119.34459 | 22292 ft | 405 kts | 69° |
| 2026-05-06 15:20 | 9.83902 | 119.37092 | 22732 ft | 408 kts | 69° |
| 2026-05-06 15:21 | 9.84929 | 119.39797 | 23167 ft | 412 kts | 69° |
| 2026-05-06 15:21 | 9.85960 | 119.42514 | 23564 ft | 415 kts | 69° |
| 2026-05-06 15:21 | 9.87000 | 119.45255 | 23925 ft | 417 kts | 69° |
| 2026-05-06 15:21 | 9.88044 | 119.48006 | 24295 ft | 420 kts | 69° |
| 2026-05-06 15:22 | 9.89095 | 119.50779 | 24635 ft | 423 kts | 69° |
| 2026-05-06 15:22 | 9.90151 | 119.53563 | 24981 ft | 425 kts | 69° |
| 2026-05-06 15:22 | 9.91215 | 119.56369 | 25321 ft | 428 kts | 69° |
| 2026-05-06 15:22 | 9.92284 | 119.59190 | 25663 ft | 430 kts | 69° |
| 2026-05-06 15:23 | 9.93361 | 119.62032 | 25990 ft | 433 kts | 69° |
| 2026-05-06 15:23 | 9.94447 | 119.64899 | 26311 ft | 435 kts | 69° |
| 2026-05-06 15:23 | 9.95533 | 119.67768 | 26644 ft | 438 kts | 69° |
| 2026-05-06 15:23 | 9.96625 | 119.70654 | 26963 ft | 440 kts | 69° |
| 2026-05-06 15:24 | 9.97728 | 119.73568 | 27265 ft | 443 kts | 69° |
| 2026-05-06 15:24 | 9.98832 | 119.76486 | 27565 ft | 445 kts | 69° |
| 2026-05-06 15:24 | 9.99948 | 119.79435 | 27848 ft | 448 kts | 69° |
| 2026-05-06 15:24 | 10.01066 | 119.82393 | 28128 ft | 451 kts | 69° |
| 2026-05-06 15:25 | 10.02192 | 119.85370 | 28401 ft | 453 kts | 69° |
| 2026-05-06 15:25 | 10.03324 | 119.88366 | 28677 ft | 456 kts | 69° |
| 2026-05-06 15:25 | 10.04461 | 119.91375 | 28945 ft | 458 kts | 69° |
| 2026-05-06 15:25 | 10.05608 | 119.94413 | 29186 ft | 461 kts | 69° |
| 2026-05-06 15:26 | 10.06758 | 119.97458 | 29438 ft | 464 kts | 69° |
| 2026-05-06 15:26 | 10.07911 | 120.00513 | 29699 ft | 466 kts | 69° |
| 2026-05-06 15:26 | 10.09033 | 120.03490 | 29943 ft | 469 kts | 69° |
| 2026-05-06 15:26 | 10.10161 | 120.06479 | 30169 ft | 471 kts | 69° |
| 2026-05-06 15:27 | 10.11347 | 120.09624 | 30413 ft | 473 kts | 69° |
| 2026-05-06 15:27 | 10.12511 | 120.12710 | 30654 ft | 474 kts | 69° |
| 2026-05-06 15:27 | 10.13694 | 120.15851 | 30887 ft | 477 kts | 69° |
| 2026-05-06 15:27 | 10.14823 | 120.18848 | 31167 ft | 477 kts | 69° |
| 2026-05-06 15:28 | 10.16008 | 120.21992 | 31487 ft | 477 kts | 69° |
| 2026-05-06 15:28 | 10.17192 | 120.25138 | 31819 ft | 476 kts | 69° |
| 2026-05-06 15:28 | 10.18375 | 120.28280 | 32157 ft | 476 kts | 69° |
| 2026-05-06 15:28 | 10.19554 | 120.31415 | 32475 ft | 476 kts | 69° |
| 2026-05-06 15:29 | 10.20734 | 120.34552 | 32774 ft | 476 kts | 69° |
| 2026-05-06 15:29 | 10.21913 | 120.37687 | 33089 ft | 475 kts | 69° |
| 2026-05-06 15:29 | 10.23087 | 120.40814 | 33391 ft | 475 kts | 70° |
| 2026-05-06 15:29 | 10.24108 | 120.44001 | 33684 ft | 474 kts | 71° |
| 2026-05-06 15:30 | 10.25449 | 120.47050 | 33878 ft | 474 kts | 59° |
| 2026-05-06 15:30 | 10.29327 | 120.52437 | 33885 ft | 472 kts | 52° |
| 2026-05-06 15:31 | 10.32598 | 120.56697 | 33886 ft | 472 kts | 52° |
| 2026-05-06 15:31 | 10.36622 | 120.61996 | 33887 ft | 473 kts | 52° |
| 2026-05-06 15:32 | 10.42619 | 120.69957 | 33891 ft | 473 kts | 52° |
| 2026-05-06 15:32 | 10.47260 | 120.76126 | 33882 ft | 473 kts | 52° |
| 2026-05-06 15:33 | 10.50608 | 120.80578 | 33883 ft | 473 kts | 52° |
| 2026-05-06 15:33 | 10.54598 | 120.85885 | 33881 ft | 473 kts | 52° |
| 2026-05-06 15:34 | 10.58567 | 120.91166 | 33883 ft | 473 kts | 52° |
| 2026-05-06 15:34 | 10.62495 | 120.96396 | 33880 ft | 473 kts | 52° |
| 2026-05-06 15:35 | 10.66490 | 121.01717 | 33884 ft | 473 kts | 52° |
| 2026-05-06 15:35 | 10.70448 | 121.06993 | 33880 ft | 473 kts | 52° |
| 2026-05-06 15:36 | 10.74443 | 121.12318 | 33880 ft | 473 kts | 52° |
| 2026-05-06 15:36 | 10.78434 | 121.17644 | 33877 ft | 473 kts | 52° |
| 2026-05-06 15:37 | 10.82406 | 121.22944 | 33877 ft | 474 kts | 52° |
| 2026-05-06 15:37 | 10.86402 | 121.28281 | 33874 ft | 474 kts | 52° |
| 2026-05-06 15:38 | 10.90402 | 121.33624 | 33876 ft | 475 kts | 52° |
| 2026-05-06 15:38 | 10.94406 | 121.38976 | 33878 ft | 475 kts | 52° |
| 2026-05-06 15:39 | 10.98411 | 121.44332 | 33877 ft | 476 kts | 52° |
| 2026-05-06 15:39 | 11.02420 | 121.49697 | 33875 ft | 476 kts | 52° |
| 2026-05-06 15:40 | 11.06431 | 121.55066 | 33878 ft | 476 kts | 52° |
| 2026-05-06 15:40 | 11.10438 | 121.60432 | 33883 ft | 477 kts | 52° |
| 2026-05-06 15:41 | 11.14434 | 121.65787 | 33886 ft | 477 kts | 52° |
| 2026-05-06 15:41 | 11.18455 | 121.71179 | 33889 ft | 477 kts | 52° |
| 2026-05-06 15:42 | 11.22477 | 121.76574 | 33891 ft | 477 kts | 52° |
| 2026-05-06 15:42 | 11.26465 | 121.81926 | 33896 ft | 477 kts | 52° |
| 2026-05-06 15:43 | 11.30476 | 121.87312 | 33899 ft | 477 kts | 52° |
| 2026-05-06 15:43 | 11.34488 | 121.92703 | 33781 ft | 475 kts | 52° |
| 2026-05-06 15:44 | 11.36426 | 121.95308 | 33402 ft | 468 kts | 52° |
| 2026-05-06 15:44 | 11.38312 | 121.97844 | 32943 ft | 462 kts | 52° |
| 2026-05-06 15:44 | 11.40244 | 122.00442 | 32366 ft | 460 kts | 52° |
| 2026-05-06 15:44 | 11.42174 | 122.03038 | 31728 ft | 459 kts | 52° |
| 2026-05-06 15:45 | 11.44099 | 122.05629 | 31090 ft | 458 kts | 52° |
| 2026-05-06 15:45 | 11.46022 | 122.08216 | 30467 ft | 457 kts | 52° |
| 2026-05-06 15:45 | 11.47687 | 122.10457 | 29935 ft | 455 kts | 52° |
| 2026-05-06 15:45 | 11.49389 | 122.12748 | 29285 ft | 448 kts | 52° |
| 2026-05-06 15:46 | 11.51126 | 122.15086 | 28631 ft | 440 kts | 52° |
| 2026-05-06 15:46 | 11.52960 | 122.17556 | 27951 ft | 432 kts | 52° |
| 2026-05-06 15:46 | 11.54759 | 122.19979 | 27286 ft | 424 kts | 52° |
| 2026-05-06 15:46 | 11.56522 | 122.22355 | 26637 ft | 416 kts | 53° |
| 2026-05-06 15:47 | 11.58256 | 122.24690 | 26000 ft | 409 kts | 53° |
| 2026-05-06 15:47 | 11.59950 | 122.26972 | 25384 ft | 402 kts | 53° |
| 2026-05-06 15:47 | 11.61614 | 122.29191 | 24779 ft | 395 kts | 50° |
| 2026-05-06 15:47 | 11.63630 | 122.31058 | 24188 ft | 389 kts | 34° |
| 2026-05-06 15:48 | 11.66055 | 122.32236 | 23608 ft | 385 kts | 17° |
| 2026-05-06 15:48 | 11.68428 | 122.32620 | 23006 ft | 383 kts | 2° |
| 2026-05-06 15:48 | 11.71149 | 122.32226 | 22292 ft | 380 kts | 343° |
| 2026-05-06 15:48 | 11.73525 | 122.31080 | 21599 ft | 380 kts | 327° |
| 2026-05-06 15:49 | 11.75490 | 122.29287 | 20868 ft | 380 kts | 310° |
| 2026-05-06 15:49 | 11.77133 | 122.27181 | 20166 ft | 377 kts | 310° |
| 2026-05-06 15:49 | 11.78763 | 122.25086 | 19474 ft | 375 kts | 310° |
| 2026-05-06 15:49 | 11.80382 | 122.23014 | 18804 ft | 373 kts | 310° |
| 2026-05-06 15:50 | 11.81896 | 122.21081 | 18181 ft | 371 kts | 310° |
| 2026-05-06 15:50 | 11.83507 | 122.19027 | 17430 ft | 369 kts | 310° |
| 2026-05-06 15:50 | 11.85106 | 122.16990 | 16689 ft | 367 kts | 310° |
| 2026-05-06 15:50 | 11.86696 | 122.14965 | 15967 ft | 365 kts | 310° |
| 2026-05-06 15:51 | 11.88258 | 122.12975 | 15271 ft | 362 kts | 310° |
| 2026-05-06 15:51 | 11.89831 | 122.10970 | 14583 ft | 360 kts | 310° |
| 2026-05-06 15:51 | 11.91391 | 122.08983 | 13907 ft | 358 kts | 310° |
| 2026-05-06 15:51 | 11.92944 | 122.07003 | 13171 ft | 356 kts | 310° |
| 2026-05-06 15:52 | 11.94482 | 122.05042 | 12438 ft | 353 kts | 310° |
| 2026-05-06 15:52 | 11.96008 | 122.03093 | 11709 ft | 350 kts | 310° |
| 2026-05-06 15:52 | 11.97527 | 122.01155 | 11010 ft | 348 kts | 310° |
| 2026-05-06 15:52 | 11.99034 | 121.99230 | 10309 ft | 345 kts | 310° |
| 2026-05-06 15:53 | 12.00526 | 121.97325 | 9613 ft | 342 kts | 310° |
| 2026-05-06 15:53 | 12.02008 | 121.95432 | 8864 ft | 339 kts | 310° |
| 2026-05-06 15:53 | 12.03179 | 121.93362 | 8137 ft | 340 kts | 290° |
| 2026-05-06 15:53 | 12.03528 | 121.91228 | 7488 ft | 340 kts | 269° |
| 2026-05-06 15:54 | 12.03066 | 121.88882 | 6785 ft | 338 kts | 246° |
| 2026-05-06 15:54 | 12.01808 | 121.86891 | 6160 ft | 331 kts | 227° |
| 2026-05-06 15:54 | 12.00263 | 121.85206 | 5815 ft | 317 kts | 225° |
| 2026-05-06 15:54 | 11.98811 | 121.83597 | 5568 ft | 301 kts | 227° |
| 2026-05-06 15:55 | 11.97514 | 121.82013 | 5330 ft | 287 kts | 230° |
| 2026-05-06 15:55 | 11.96325 | 121.80430 | 5083 ft | 275 kts | 232° |
| 2026-05-06 15:55 | 11.95224 | 121.78883 | 4846 ft | 263 kts | 233° |
| 2026-05-06 15:55 | 11.94194 | 121.77398 | 4598 ft | 251 kts | 234° |
| 2026-05-06 15:56 | 11.93222 | 121.75982 | 4345 ft | 241 kts | 234° |
| 2026-05-06 15:56 | 11.92183 | 121.74701 | 4110 ft | 228 kts | 216° |
| 2026-05-06 15:56 | 11.90912 | 121.74025 | 3951 ft | 209 kts | 191° |
| 2026-05-06 15:56 | 11.89530 | 121.73937 | 3792 ft | 192 kts | 165° |
| 2026-05-06 15:57 | 11.88216 | 121.74417 | 3788 ft | 212 kts | 147° |
| 2026-05-06 15:57 | 11.86950 | 121.75081 | 3776 ft | 195 kts | 147° |
| 2026-05-06 15:57 | 11.85750 | 121.75699 | 3781 ft | 194 kts | 146° |
| 2026-05-06 15:57 | 11.84628 | 121.76426 | 3782 ft | 187 kts | 127° |
| 2026-05-06 15:58 | 11.84044 | 121.77553 | 3782 ft | 179 kts | 97° |
| 2026-05-06 15:58 | 11.84129 | 121.78787 | 3785 ft | 175 kts | 69° |
| 2026-05-06 15:58 | 11.84679 | 121.79893 | 3782 ft | 176 kts | 62° |
| 2026-05-06 15:58 | 11.85245 | 121.80995 | 3771 ft | 175 kts | 62° |
| 2026-05-06 15:59 | 11.85796 | 121.82089 | 3612 ft | 175 kts | 63° |
| 2026-05-06 15:59 | 11.86355 | 121.83208 | 3416 ft | 173 kts | 63° |
| 2026-05-06 15:59 | 11.86891 | 121.84279 | 3230 ft | 173 kts | 63° |
| 2026-05-06 15:59 | 11.87439 | 121.85375 | 3038 ft | 173 kts | 63° |
| 2026-05-06 16:00 | 11.87987 | 121.86470 | 2820 ft | 173 kts | 63° |
| 2026-05-06 16:00 | 11.88525 | 121.87542 | 2525 ft | 164 kts | 63° |
| 2026-05-06 16:00 | 11.89030 | 121.88540 | 2203 ft | 153 kts | 63° |
| 2026-05-06 16:00 | 11.89547 | 121.89480 | 1888 ft | 155 kts | 61° |
| 2026-05-06 16:01 | 11.90056 | 121.90478 | 1559 ft | 163 kts | 63° |
| 2026-05-06 16:01 | 11.90547 | 121.91526 | 1184 ft | 159 kts | 63° |
| 2026-05-06 16:01 | 11.91029 | 121.92498 | 752 ft | 150 kts | 63° |
| 2026-05-06 16:01 | 11.91484 | 121.93441 | 387 ft | 146 kts | 63° |
| 2026-05-06 16:02 | 11.91894 | 121.94266 | 197 ft | 140 kts | 63° |
| 2026-05-06 16:02 | 11.92314 | 121.95116 | 38 ft | 127 kts | 63° |
| 2026-05-06 16:02 | 11.92669 | 121.95825 | 28 ft | 73 kts | 63° |
| 2026-05-06 16:02 | 11.92823 | 121.96137 | 29 ft | 44 kts | 63° |
| 2026-05-06 16:03 | 11.92934 | 121.96377 | 30 ft | 17 kts | 78° |
| 2026-05-06 16:03 | 11.92923 | 121.96474 | 32 ft | 12 kts | 138° |
| 2026-05-06 16:03 | 11.92842 | 121.96519 | 33 ft | 14 kts | 154° |
| 2026-05-06 16:03 | 11.92765 | 121.96481 | 32 ft | 15 kts | 241° |
| 2026-05-06 16:04 | 11.92725 | 121.96408 | 31 ft | 0 kts | 240° |
| 2026-05-06 16:04 | 11.92705 | 121.96394 | 30 ft | 4 kts | 175° |
| 2026-05-06 16:04 | 11.92679 | 121.96410 | 32 ft | 1 kts | 152° |
| 2026-05-06 16:04 | 11.92665 | 121.96418 | 32 ft | 2 kts | 153° |
| 2026-05-06 16:05 | 11.92664 | 121.96418 | 32 ft | 0 kts | 153° |